Hao Rui 6 — T3HY2 — position and weather

sailwx.info

Track history (hours):
 
Tides and Currents Weather Stations Pressure Air Temp Water Temp Dewpoint Dewpoint Depression Visibility Wind Speed Wind Dir Waves Ship Positions

Hao Rui 6

Last reported at 2017-Dec-17 12:12 UTC. Time now 2017-Dec-18 14:56 UTC.
Position N 31°02' E 122°16'.

Length 88 m; draft 4.5 m.

Type: Cargo ship. MMSI: 529625000.

Date/timePositionNaut miles runAvg speedWind from/ knotsBaromVisibWave heightAir tempDewpointWater temp
2017-Dec-17 12:12N 31°02' E 122°16'3 6.7
2017-Dec-17 11:42N 31°03' E 122°13'2 5.4
2017-Dec-17 11:25N 31°03' E 122°11'5 7.9
2017-Dec-17 10:50N 31°04' E 122°06'3 9.1
2017-Dec-17 10:28N 31°05' E 122°02'5 9.9
2017-Dec-17 09:59N 31°07' E 121°57'3211.1
2017-Dec-17 07:05N 31°27' E 121°28'1 9.2
2017-Dec-17 06:59N 31°28' E 121°27'4 9.4
2017-Dec-17 06:30N 31°30' E 121°22'0 0.0
2017-Dec-15 18:00N 31°30' E 121°22'1 1.2
2017-Dec-15 17:29N 31°30' E 121°23'4 8.6
2017-Dec-15 17:00N 31°28' E 121°27'30 9.5
2017-Dec-15 13:48N 31°08' E 121°54'511.2
2017-Dec-15 13:21N 31°06' E 121°60'16 9.6
2017-Dec-15 11:40N 31°01' E 122°18'  
Track history (hours):
 
Tides and Currents Weather Stations Pressure Air Temp Water Temp Dewpoint Dewpoint Depression Visibility Wind Speed Wind Dir Waves Ship Positions

Hao Rui 6

Last reported at 2017-Dec-17 12:12 UTC. Time now 2017-Dec-18 14:56 UTC.
Position N 31°02' E 122°16'.

Length 88 m; draft 4.5 m.

Type: Cargo ship. MMSI: 529625000.

Date/timePositionNaut miles runAvg speedWind from/ knotsBaromVisibWave heightAir tempDewpointWater temp
2017-Dec-17 12:12N 31°02' E 122°16'3 6.7
2017-Dec-17 11:42N 31°03' E 122°13'2 5.4
2017-Dec-17 11:25N 31°03' E 122°11'5 7.9
2017-Dec-17 10:50N 31°04' E 122°06'3 9.1
2017-Dec-17 10:28N 31°05' E 122°02'5 9.9
2017-Dec-17 09:59N 31°07' E 121°57'3211.1
2017-Dec-17 07:05N 31°27' E 121°28'1 9.2
2017-Dec-17 06:59N 31°28' E 121°27'4 9.4
2017-Dec-17 06:30N 31°30' E 121°22'0 0.0
2017-Dec-15 18:00N 31°30' E 121°22'1 1.2
2017-Dec-15 17:29N 31°30' E 121°23'4 8.6
2017-Dec-15 17:00N 31°28' E 121°27'30 9.5
2017-Dec-15 13:48N 31°08' E 121°54'511.2
2017-Dec-15 13:21N 31°06' E 121°60'16 9.6
2017-Dec-15 11:40N 31°01' E 122°18'  

Dump ship's entire track history